Time;durP1;ratioP1;P1;durP2;ratioP2;P2;SDS_P1;SDS_P2;PMS_P1;PMS_P2;Temp;Humidity;BMP_temperature;BMP_pressure;BME280_temperature;BME280_humidity;BME280_pressure;Samples;Min_cycle;Max_cycle;Signal;HPM_P1;HPM_P2
2022/10/07 00:01:48;;;;;;;10.82;3.20;;;;;;;9.03;94.57;67777.06;4943126;28;20043;-88
2022/10/07 00:04:14;;;;;;;9.50;3.13;;;;;;;9.03;94.26;67772.31;4952196;28;20143;-86
2022/10/07 00:06:40;;;;;;;10.25;2.67;;;;;;;9.06;94.68;67780.44;4919864;29;20188;-86
2022/10/07 00:09:08;;;;;;;8.57;3.00;;;;;;;9.09;94.50;67783.88;4952637;29;20081;-85
2022/10/07 00:11:34;;;;;;;9.85;3.58;;;;;;;9.09;94.22;67783.28;4949124;28;20069;-85
2022/10/07 00:14:03;;;;;;;8.75;2.97;;;;;;;9.12;94.98;67786.69;4944458;28;20598;-85
2022/10/07 00:16:34;;;;;;;7.18;2.90;;;;;;;9.15;94.77;67784.78;4944302;28;20051;-87
2022/10/07 00:19:02;;;;;;;9.98;3.28;;;;;;;9.16;94.55;67791.78;4936140;28;20103;-86
2022/10/07 00:21:31;;;;;;;8.60;3.50;;;;;;;;;;4942241;29;20051;-85
2022/10/07 00:23:59;;;;;;;8.98;3.28;;;;;;;;;;4935086;29;20112;-86
2022/10/07 00:26:28;;;;;;;10.35;3.33;;;;;;;9.16;94.14;67794.44;4935085;29;20425;-85
2022/10/07 00:28:54;;;;;;;10.27;3.38;;;;;;;9.17;94.27;67795.00;4947659;28;20043;-85
2022/10/07 00:31:24;;;;;;;8.45;3.38;;;;;;;;;;4932728;28;20051;-87
2022/10/07 00:33:50;;;;;;;10.38;3.47;;;;;;;;;;4961515;28;20043;-85
2022/10/07 00:36:19;;;;;;;9.73;4.10;;;;;;;9.16;94.04;67794.44;4973763;28;20398;-85
2022/10/07 00:38:44;;;;;;;;;;;;;;;;;;4973117;28;20068;-85
2022/10/07 00:41:21;;;;;;;7.77;3.17;;;;;;;;;;4972174;28;19926;-86
2022/10/07 00:43:47;;;;;;;11.02;3.28;;;;;;;8.98;94.92;67771.41;4952121;28;20047;-86
2022/10/07 00:46:24;;;;;;;9.75;3.30;;;;;;;;;;4945239;28;20105;-85
2022/10/07 00:48:50;;;;;;;11.95;4.00;;;;;;;8.97;95.13;67773.47;4955130;28;20119;-85
2022/10/07 00:51:16;;;;;;;10.88;3.38;;;;;;;8.98;95.47;67771.41;4956154;28;20051;-85
2022/10/07 00:53:46;;;;;;;9.43;3.28;;;;;;;9.02;95.81;67775.94;4973284;28;20038;-87
2022/10/07 00:56:14;;;;;;;10.82;3.70;;;;;;;9.01;95.57;67774.81;4970336;28;20478;-85
2022/10/07 00:58:41;;;;;;;10.85;3.53;;;;;;;9.02;95.64;67775.94;4971860;28;20043;-86
2022/10/07 01:01:08;;;;;;;9.18;3.28;;;;;;;9.00;95.34;67768.34;4954629;28;20447;-86
2022/10/07 01:03:36;;;;;;;10.95;3.55;;;;;;;9.01;96.03;67780.09;4973051;28;20047;-86
2022/10/07 01:06:05;;;;;;;11.10;3.53;;;;;;;;;;4945098;28;20045;-86
2022/10/07 01:08:36;;;;;;;7.13;3.75;;;;;;;9.04;96.26;67778.19;4964120;28;20476;-85
2022/10/07 01:11:12;;;;;;;10.02;3.72;;;;;;;9.06;96.25;67779.88;4952582;28;20047;-86
2022/10/07 01:13:55;;;;;;;10.68;4.20;;;;;;;9.08;96.17;67782.16;4972226;28;20583;-85
2022/10/07 01:16:31;;;;;;;11.13;3.92;;;;;;;;;;4970758;28;20062;-85
2022/10/07 01:19:15;;;;;;;10.52;3.45;;;;;;;9.07;96.33;67783.69;4962744;28;20038;-86
2022/10/07 01:21:55;;;;;;;8.38;3.90;;;;;;;9.07;96.16;67781.59;4949566;28;20094;-86
2022/10/07 01:24:39;;;;;;;10.55;3.53;;;;;;;9.06;96.19;67780.44;4928185;28;20039;-86
2022/10/07 01:27:27;;;;;;;8.18;3.30;;;;;;;9.08;96.36;67785.38;4954258;28;20524;-86
2022/10/07 01:30:01;;;;;;;8.15;3.90;;;;;;;9.09;96.58;67783.28;4964659;28;20123;-86
2022/10/07 01:32:36;;;;;;;11.18;3.70;;;;;;;9.08;96.50;67782.16;4967675;28;20038;-85
2022/10/07 01:35:07;;;;;;;8.00;3.65;;;;;;;9.07;96.39;67781.59;4971370;28;20450;-86
2022/10/07 01:37:37;;;;;;;11.15;3.42;;;;;;;9.07;96.71;67781.03;4971194;28;20152;-86
2022/10/07 01:40:11;;;;;;;9.80;3.45;;;;;;;9.09;96.37;67783.88;4931816;28;20043;-85
2022/10/07 01:42:43;;;;;;;12.27;3.63;;;;;;;9.09;96.39;67778.56;4905015;29;20050;-85
2022/10/07 01:45:11;;;;;;;10.25;4.13;;;;;;;9.09;96.58;67783.88;4917083;29;20043;-85
2022/10/07 01:47:36;;;;;;;13.17;4.13;;;;;;;9.10;96.83;67784.44;4928498;29;20127;-88
2022/10/07 01:50:04;;;;;;;12.05;4.07;;;;;;;;;;4926455;29;20439;-85
2022/10/07 01:52:42;;;;;;;9.93;3.53;;;;;;;9.10;96.35;67785.00;4931122;29;20051;-89
2022/10/07 01:55:30;;;;;;;10.70;3.78;;;;;;;9.10;96.10;67785.00;4913459;29;20055;-86
2022/10/07 01:58:17;;;;;;;12.45;3.65;;;;;;;9.07;96.13;67781.59;4923071;29;20047;-86
2022/10/07 02:00:53;;;;;;;12.40;4.00;;;;;;;9.01;96.24;67775.38;4914994;29;20128;-86
2022/10/07 02:03:21;;;;;;;10.88;4.13;;;;;;;9.01;96.55;67774.81;4911034;29;20071;-85
2022/10/07 02:05:46;;;;;;;8.68;3.67;;;;;;;8.98;96.84;67771.97;4913745;28;20035;-85
2022/10/07 02:08:20;;;;;;;13.80;4.35;;;;;;;;;;4956593;28;20051;-86
2022/10/07 02:11:13;;;;;;;12.57;4.60;;;;;;;8.98;97.37;67766.09;4970492;28;20094;-85
2022/10/07 02:13:58;;;;;;;11.75;4.22;;;;;;;8.96;97.40;67763.81;4936941;28;20039;-86
2022/10/07 02:16:33;;;;;;;14.52;4.50;;;;;;;;;;4944370;28;20047;-86
2022/10/07 02:19:03;;;;;;;11.43;4.90;;;;;;;8.86;97.83;67757.78;4953928;28;20074;-85
2022/10/07 02:21:35;;;;;;;17.27;4.90;;;;;;;8.86;97.80;67758.38;4970834;28;20416;-85
2022/10/07 02:24:01;;;;;;;11.93;4.68;;;;;;;;;;4955024;28;20405;-84
2022/10/07 02:26:29;;;;;;;10.57;4.65;;;;;;;8.88;97.64;67760.63;4969689;28;20130;-85
2022/10/07 02:29:01;;;;;;;11.40;4.50;;;;;;;8.88;97.38;67765.38;4970463;28;20038;-84
2022/10/07 02:31:30;;;;;;;11.82;4.32;;;;;;;8.85;97.70;67756.66;4951894;28;20058;-84
2022/10/07 02:33:56;;;;;;;;;;;;;;;;;;4954392;28;20520;-84
2022/10/07 02:36:28;;;;;;;8.75;4.63;;;;;;;8.73;97.85;67738.88;4970222;28;19922;-84
2022/10/07 02:38:55;;;;;;;11.93;4.57;;;;;;;8.67;98.46;67740.06;4970404;28;20062;-84
2022/10/07 02:41:32;;;;;;;12.23;4.72;;;;;;;8.67;98.54;67737.41;4953104;28;20413;-84
2022/10/07 02:44:24;;;;;;;12.95;6.13;;;;;;;8.70;98.53;67740.81;4969812;28;20041;-85
2022/10/07 02:46:55;;;;;;;16.10;5.38;;;;;;;8.68;98.50;67741.19;4970479;28;20058;-85
2022/10/07 02:49:27;;;;;;;13.18;5.30;;;;;;;8.67;98.55;67737.41;4969655;28;20409;-84
2022/10/07 02:52:04;;;;;;;16.23;5.07;;;;;;;8.66;98.87;67730.97;4944677;28;20038;-84
2022/10/07 02:54:47;;;;;;;16.05;5.40;;;;;;;8.64;99.07;67733.44;4965390;28;20405;-87
2022/10/07 02:57:17;;;;;;;13.75;4.55;;;;;;;8.64;98.88;67733.44;4933739;28;20076;-85
2022/10/07 02:59:46;;;;;;;14.80;5.78;;;;;;;8.61;99.03;67730.03;4967468;28;20083;-84
2022/10/07 03:02:15;;;;;;;14.95;5.28;;;;;;;;;;4968716;28;20536;-84
2022/10/07 03:04:41;;;;;;;12.32;5.00;;;;;;;8.61;99.15;67730.03;4949262;28;20050;-85
2022/10/07 03:07:06;;;;;;;16.20;5.53;;;;;;;;;;4970564;28;20093;-86
2022/10/07 03:09:32;;;;;;;13.77;5.95;;;;;;;;;;4969364;28;20130;-85
2022/10/07 03:11:57;;;;;;;15.45;6.15;;;;;;;8.58;99.29;67729.84;4950992;28;20051;-85
2022/10/07 03:14:25;;;;;;;15.55;5.82;;;;;;;8.56;99.77;67728.16;4970785;28;20069;-86
2022/10/07 03:16:52;;;;;;;12.10;5.23;;;;;;;8.56;99.30;67724.94;4929808;28;20042;-85
2022/10/07 03:19:23;;;;;;;10.65;5.13;;;;;;;8.52;99.67;67720.97;4948281;28;20043;-85
2022/10/07 03:21:48;;;;;;;11.23;5.45;;;;;;;8.54;100.00;67727.97;4964121;28;20039;-86
2022/10/07 03:24:14;;;;;;;13.48;5.63;;;;;;;;;;4948693;28;20054;-85
2022/10/07 03:26:39;;;;;;;15.25;5.47;;;;;;;;;;4943643;28;20043;-86
2022/10/07 03:29:05;;;;;;;19.27;5.57;;;;;;;8.54;100.00;67722.66;4966414;28;20096;-85
2022/10/07 03:31:30;;;;;;;14.15;5.97;;;;;;;;;;4970077;28;20549;-86
2022/10/07 03:33:56;;;;;;;15.00;6.68;;;;;;;8.55;100.00;67723.81;4949859;28;20206;-85
2022/10/07 03:36:23;;;;;;;17.42;5.55;;;;;;;8.53;100.00;67721.53;4949696;28;20055;-85
2022/10/07 03:38:49;;;;;;;13.93;6.32;;;;;;;8.54;100.00;67725.31;4955341;28;20241;-86
2022/10/07 03:41:16;;;;;;;12.65;5.68;;;;;;;8.55;100.00;67718.50;4965530;28;20038;-85
2022/10/07 03:43:41;;;;;;;19.13;5.85;;;;;;;8.54;100.00;67722.66;4974819;28;20104;-85
2022/10/07 03:46:07;;;;;;;18.08;5.63;;;;;;;8.53;100.00;67721.53;4954555;28;20046;-85
2022/10/07 03:48:32;;;;;;;15.98;6.60;;;;;;;8.54;100.00;67722.66;4957876;28;20086;-85
2022/10/07 03:50:58;;;;;;;16.10;5.88;;;;;;;;;;4974574;28;20497;-85
2022/10/07 03:53:25;;;;;;;15.80;6.32;;;;;;;8.53;100.00;67724.19;4976187;28;20043;-86
2022/10/07 03:55:50;;;;;;;15.82;6.07;;;;;;;;;;4960399;28;20042;-86
2022/10/07 03:58:15;;;;;;;13.63;6.60;;;;;;;8.55;100.00;67723.81;4973836;28;20061;-85
2022/10/07 04:00:41;;;;;;;15.15;6.13;;;;;;;8.55;100.00;67723.81;4975186;28;20117;-85
2022/10/07 04:03:08;;;;;;;13.38;5.72;;;;;;;8.54;100.00;67722.66;4974575;28;20047;-87
2022/10/07 04:05:34;;;;;;;18.85;6.38;;;;;;;;;;4976556;28;20469;-85
2022/10/07 04:07:59;;;;;;;15.15;5.82;;;;;;;;;;4974857;28;20043;-85
2022/10/07 04:10:24;;;;;;;16.50;6.72;;;;;;;;;;4975787;28;20524;-85
2022/10/07 04:12:51;;;;;;;16.35;6.72;;;;;;;8.53;100.00;67721.53;4975084;28;20062;-85
2022/10/07 04:15:17;;;;;;;15.95;7.18;;;;;;;8.49;100.00;67717.00;4972387;28;20046;-85
2022/10/07 04:17:43;;;;;;;16.90;7.47;;;;;;;;;;4975474;28;20058;-85
2022/10/07 04:20:10;;;;;;;17.27;7.65;;;;;;;8.48;100.00;67710.56;4957310;28;20129;-85
2022/10/07 04:22:36;;;;;;;18.98;7.57;;;;;;;8.47;100.00;67714.75;4958077;28;20043;-85
2022/10/07 04:27:52;;;;;;;20.08;7.97;;;;;;;;;;4973559;28;20528;-84
2022/10/07 04:30:19;;;;;;;13.85;6.75;;;;;;;8.42;100.00;67709.06;4976234;28;20059;-84
2022/10/07 04:32:44;;;;;;;15.90;5.80;;;;;;;;;;4976981;28;20065;-86
2022/10/07 04:35:12;;;;;;;17.38;6.53;;;;;;;8.40;100.00;67706.81;4962022;28;20433;-86
2022/10/07 04:37:37;;;;;;;16.58;6.18;;;;;;;8.39;100.00;67706.25;4974121;28;20054;-86
2022/10/07 04:40:03;;;;;;;17.00;6.20;;;;;;;8.39;100.00;67705.69;4963998;28;20042;-85
2022/10/07 04:45:12;;;;;;;15.20;6.25;;;;;;;8.38;100.00;67704.53;4973626;28;20065;-85
2022/10/07 04:47:37;;;;;;;15.05;5.95;;;;;;;8.36;100.00;67706.03;4973328;28;20557;-87
2022/10/07 04:50:03;;;;;;;13.93;6.22;;;;;;;8.36;100.00;67703.38;4970831;28;20050;-85
2022/10/07 04:52:29;;;;;;;17.65;6.65;;;;;;;8.34;100.00;67700.56;4969448;28;20145;-85
2022/10/07 04:54:54;;;;;;;17.75;6.53;;;;;;;8.34;100.00;67703.78;4964286;28;20085;-85
2022/10/07 04:57:19;;;;;;;13.30;6.25;;;;;;;;;;4966909;28;20167;-87
2022/10/07 04:59:44;;;;;;;17.98;6.13;;;;;;;;;;4970284;28;20046;-86
2022/10/07 05:02:10;;;;;;;19.65;6.45;;;;;;;8.32;100.00;67698.88;4971443;28;20039;-88
2022/10/07 05:04:35;;;;;;;15.73;5.78;;;;;;;8.29;100.00;67697.56;4971578;28;20170;-86
2022/10/07 05:07:01;;;;;;;15.43;6.43;;;;;;;8.30;100.00;67699.25;4972617;28;20429;-85
2022/10/07 05:09:26;;;;;;;22.90;6.38;;;;;;;8.28;100.00;67694.31;4971610;28;20047;-84
2022/10/07 05:11:54;;;;;;;17.77;6.20;;;;;;;;;;4962586;28;20054;-87
2022/10/07 05:14:20;;;;;;;14.98;6.20;;;;;;;;;;4971331;28;20042;-85
2022/10/07 05:16:49;;;;;;;17.98;6.10;;;;;;;8.28;100.00;67699.63;4971563;28;20106;-85
2022/10/07 05:19:14;;;;;;;14.45;5.88;;;;;;;8.29;100.00;67700.78;4968394;28;20501;-86
2022/10/07 05:21:40;;;;;;;19.70;6.57;;;;;;;8.29;100.00;67695.47;4955584;28;20039;-86
2022/10/07 05:24:06;;;;;;;13.13;5.65;;;;;;;;;;4957425;28;20047;-85
2022/10/07 05:26:31;;;;;;;14.13;5.72;;;;;;;8.30;100.00;67696.03;4972518;28;20051;-86
2022/10/07 05:28:56;;;;;;;17.20;6.43;;;;;;;8.30;100.00;67696.59;4954268;28;20430;-86
2022/10/07 05:31:22;;;;;;;16.23;5.90;;;;;;;8.30;100.00;67696.59;4954973;28;20042;-85
2022/10/07 05:33:48;;;;;;;15.70;6.00;;;;;;;8.28;100.00;67699.63;4954665;28;20043;-85
2022/10/07 05:36:14;;;;;;;17.90;7.05;;;;;;;;;;4974020;28;20039;-86
2022/10/07 05:38:39;;;;;;;15.10;6.45;;;;;;;8.27;100.00;67693.19;4967404;28;20066;-86
2022/10/07 05:41:08;;;;;;;16.63;5.97;;;;;;;8.26;100.00;67691.50;4953134;28;20510;-87
2022/10/07 05:43:33;;;;;;;;;;;;;;;;;;4954748;28;20043;-85
2022/10/07 05:46:00;;;;;;;16.80;6.00;;;;;;;;;;4967074;28;19925;-85
2022/10/07 05:48:27;;;;;;;16.85;6.30;;;;;;;;;;4969890;28;20058;-87
2022/10/07 05:53:28;;;;;;;18.13;6.20;;;;;;;8.19;100.00;67689.44;4967823;22;20055;-91
2022/10/07 05:55:57;;;;;;;15.82;6.40;;;;;;;8.20;100.00;67685.28;4954165;28;20047;-89
2022/10/07 05:58:35;;;;;;;14.02;5.47;;;;;;;8.21;100.00;67685.84;4889764;29;20037;-92
2022/10/07 06:01:03;;;;;;;15.77;6.18;;;;;;;8.20;100.00;67679.38;4893624;29;20765;-91
2022/10/07 06:03:32;;;;;;;14.38;5.70;;;;;;;8.21;100.00;67686.41;4868416;29;20053;-92
2022/10/07 06:06:01;;;;;;;15.90;6.72;;;;;;;8.21;100.00;67689.06;4887777;29;20340;-90
2022/10/07 06:08:29;;;;;;;17.60;6.85;;;;;;;8.21;100.00;67689.06;4887803;29;20040;-92
2022/10/07 06:13:50;;;;;;;20.05;6.10;;;;;;;;;;4884275;29;20083;-91
2022/10/07 06:16:25;;;;;;;14.60;6.10;;;;;;;8.22;100.00;67687.53;4898349;29;20048;-91
2022/10/07 06:18:59;;;;;;;18.20;6.68;;;;;;;8.23;100.00;67688.09;4897153;29;20048;-91
2022/10/07 06:21:30;;;;;;;16.77;6.78;;;;;;;8.25;100.00;67690.94;4879992;29;20138;-92
2022/10/07 06:23:58;;;;;;;17.38;5.95;;;;;;;8.27;100.00;67693.19;4908113;29;20044;-90
2022/10/07 06:26:24;;;;;;;17.55;6.28;;;;;;;8.30;100.00;67698.69;4907019;29;20044;-91
2022/10/07 06:28:49;;;;;;;15.80;5.70;;;;;;;8.32;100.00;67698.88;4906761;29;20052;-91
2022/10/07 06:31:24;;;;;;;14.77;5.70;;;;;;;8.34;100.00;67703.19;4948085;28;20062;-91
2022/10/07 06:33:55;;;;;;;12.15;5.82;;;;;;;;;;4960925;28;20058;-91
2022/10/07 06:36:30;;;;;;;15.45;5.97;;;;;;;8.42;100.00;67709.06;4909644;28;20065;-89
2022/10/07 06:39:02;;;;;;;21.05;5.88;;;;;;;;;;4899185;29;20052;-91
2022/10/07 06:41:27;;;;;;;15.95;6.40;;;;;;;8.48;100.00;67716.44;4857978;29;20528;-90
2022/10/07 06:43:59;;;;;;;20.33;5.90;;;;;;;8.54;100.00;67723.22;4829244;29;20133;-91
2022/10/07 06:46:31;;;;;;;18.90;6.20;;;;;;;8.59;100.00;67728.34;4817209;29;20053;-89
2022/10/07 06:51:53;;;;;;;20.75;6.65;;;;;;;8.68;100.00;67737.97;4821174;29;20129;-88
2022/10/07 06:54:33;;;;;;;17.45;5.95;;;;;;;8.73;100.00;67746.84;4837306;29;20057;-89
2022/10/07 06:57:02;;;;;;;18.27;5.63;;;;;;;8.80;100.00;67751.56;4810389;29;20068;-88
2022/10/07 06:59:55;;;;;;;14.43;5.60;;;;;;;;;;4817943;29;20058;-88
2022/10/07 07:02:23;;;;;;;16.13;5.95;;;;;;;8.94;100.00;67766.84;4799444;29;20069;-88
2022/10/07 07:04:50;;;;;;;15.35;5.68;;;;;;;9.02;100.00;67775.94;4810105;29;20053;-89
2022/10/07 07:07:27;;;;;;;16.13;5.05;;;;;;;9.10;100.00;67785.00;4803691;29;20050;-90
2022/10/07 07:09:52;;;;;;;16.20;5.32;;;;;;;9.18;100.00;67793.50;4823379;29;20056;-90
2022/10/07 07:12:18;;;;;;;13.60;5.40;;;;;;;;;;4873914;29;20463;-91
2022/10/07 07:14:46;;;;;;;16.38;5.05;;;;;;;9.33;100.00;67809.94;4907664;29;20058;-90
2022/10/07 07:17:20;;;;;;;15.73;5.22;;;;;;;9.40;100.00;67812.56;4897589;29;20049;-89
2022/10/07 07:19:46;;;;;;;17.80;5.20;;;;;;;9.47;100.00;67826.38;4896599;29;20050;-91
2022/10/07 07:22:14;;;;;;;14.73;5.05;;;;;;;9.55;100.00;67834.88;4912102;28;20054;-90
2022/10/07 07:24:39;;;;;;;12.25;4.95;;;;;;;;;;4930399;28;20051;-91
2022/10/07 07:27:08;;;;;;;14.63;4.80;;;;;;;;;;4963030;28;20570;-91
2022/10/07 07:29:34;;;;;;;15.15;5.13;;;;;;;9.78;100.00;67859.81;4952670;28;20580;-92
2022/10/07 07:32:00;;;;;;;17.27;5.30;;;;;;;9.83;100.00;67865.50;4963283;28;20043;-89
2022/10/07 07:34:26;;;;;;;19.17;4.97;;;;;;;;;;4946548;28;20043;-90
2022/10/07 07:36:52;;;;;;;13.43;4.40;;;;;;;;;;4896246;29;20494;-90
2022/10/07 07:39:20;;;;;;;13.35;4.80;;;;;;;10.05;99.02;67890.44;4902003;29;20076;-91
2022/10/07 07:41:46;;;;;;;14.60;4.87;;;;;;;10.12;98.64;67898.38;4917005;29;20040;-92
2022/10/07 07:44:15;;;;;;;13.55;5.03;;;;;;;;;;4915285;29;20047;-91
2022/10/07 07:46:52;;;;;;;17.20;5.45;;;;;;;10.25;97.99;67906.69;4916288;29;20124;-91
2022/10/07 07:49:26;;;;;;;14.77;5.50;;;;;;;10.36;97.90;67930.41;4907621;29;20040;-91
2022/10/07 07:51:54;;;;;;;11.55;4.85;;;;;;;10.44;97.69;67927.69;4877231;29;20051;-91
2022/10/07 07:54:20;;;;;;;12.17;4.50;;;;;;;;;;4902215;29;20044;-90
2022/10/07 07:56:48;;;;;;;13.43;4.68;;;;;;;10.53;96.61;67943.22;4890539;29;20048;-91
2022/10/07 07:59:16;;;;;;;16.90;4.88;;;;;;;10.56;95.87;67941.88;4888827;29;20052;-90
2022/10/07 08:01:45;;;;;;;14.93;4.50;;;;;;;;;;4933691;29;20182;-91
2022/10/07 08:04:12;;;;;;;9.20;3.38;;;;;;;10.73;95.52;67965.94;4936882;29;20418;-91
2022/10/07 08:06:44;;;;;;;15.55;4.35;;;;;;;10.78;95.19;67971.03;4942135;28;20634;-90
2022/10/07 08:09:18;;;;;;;19.83;5.13;;;;;;;;;;4916325;28;20202;-90
2022/10/07 08:11:55;;;;;;;13.75;4.43;;;;;;;10.92;94.43;67981.03;4903270;29;20126;-90
2022/10/07 08:14:21;;;;;;;13.13;4.32;;;;;;;11.00;94.18;67990.13;4875599;29;20045;-91
2022/10/07 08:16:50;;;;;;;15.70;4.28;;;;;;;;;;4883924;29;20521;-91
2022/10/07 08:19:25;;;;;;;11.48;4.00;;;;;;;11.14;93.77;68016.09;4853838;29;20292;-90
2022/10/07 08:21:51;;;;;;;16.20;4.70;;;;;;;;;;4851665;29;20049;-90
2022/10/07 08:24:20;;;;;;;14.63;4.00;;;;;;;;;;4859203;29;20144;-90
2022/10/07 08:26:58;;;;;;;15.90;3.97;;;;;;;11.37;92.16;68031.00;4868772;29;20330;-91
2022/10/07 08:29:43;;;;;;;9.73;3.88;;;;;;;;;;4863837;29;20092;-91
2022/10/07 08:32:09;;;;;;;16.13;4.18;;;;;;;11.48;91.49;68049.38;4837963;29;20052;-89
2022/10/07 08:34:35;;;;;;;15.65;4.07;;;;;;;11.55;91.39;68058.84;4908059;29;20656;-91
2022/10/07 08:37:12;;;;;;;15.13;4.07;;;;;;;11.63;91.01;68065.28;4896449;29;20040;-88
2022/10/07 08:39:40;;;;;;;9.45;3.53;;;;;;;11.71;90.77;68074.94;4909371;29;20055;-90
2022/10/07 08:42:26;;;;;;;9.40;3.70;;;;;;;;;;4894890;29;20612;-87
2022/10/07 08:44:52;;;;;;;14.57;3.75;;;;;;;;;;4851065;29;22027;-89
2022/10/07 08:47:29;;;;;;;11.13;3.50;;;;;;;;;;4830163;29;20088;-91
2022/10/07 08:50:03;;;;;;;9.85;3.67;;;;;;;12.01;89.26;68107.88;4789241;29;20636;-90
2022/10/07 08:52:54;;;;;;;12.35;3.63;;;;;;;12.08;88.25;68115.28;4781158;29;20055;-91
2022/10/07 08:55:43;;;;;;;13.35;3.25;;;;;;;;;;4781162;29;20096;-91
2022/10/07 08:58:26;;;;;;;;;;;;;;;12.25;88.11;68134.59;4791018;29;20431;-90
2022/10/07 09:01:17;;;;;;;11.85;3.03;;;;;;;;;;4767452;29;20490;-90
2022/10/07 09:03:43;;;;;;;11.65;3.08;;;;;;;;;;4765010;30;20508;-88
2022/10/07 09:06:18;;;;;;;9.77;3.00;;;;;;;;;;4766074;29;20067;-90
2022/10/07 09:08:50;;;;;;;13.43;3.33;;;;;;;12.53;86.30;68159.94;4810862;29;20056;-88
2022/10/07 09:11:24;;;;;;;13.10;3.38;;;;;;;12.65;86.34;68173.56;4739099;29;20064;-90
2022/10/07 09:17:11;;;;;;;12.20;2.70;;;;;;;;;;4748330;27;7685581;-91
2022/10/07 09:19:55;;;;;;;8.45;2.83;;;;;;;12.92;84.31;68203.72;4944603;28;20126;-90
2022/10/07 09:22:29;;;;;;;9.82;2.75;;;;;;;12.98;84.31;68207.28;4915834;28;20615;-92
2022/10/07 09:25:19;;;;;;;7.97;2.85;;;;;;;13.05;83.81;68218.47;4910559;29;20052;-91
2022/10/07 09:27:44;;;;;;;10.32;2.92;;;;;;;13.15;83.82;68234.63;4921497;22;20120;-87
2022/10/07 09:30:13;;;;;;;13.73;2.65;;;;;;;;;;5024493;28;20179;-88
2022/10/07 09:32:44;;;;;;;12.50;3.42;;;;;;;13.29;82.26;68244.66;5025454;28;20042;-86
2022/10/07 09:35:14;;;;;;;8.43;2.20;;;;;;;13.37;82.47;68253.19;5024830;28;20132;-85
2022/10/07 09:38:08;;;;;;;10.90;2.33;;;;;;;13.46;81.94;68260.75;5031147;28;20038;-85
2022/10/07 09:43:26;;;;;;;10.25;2.40;;;;;;;13.54;80.52;68272.53;5023176;28;20100;-86
2022/10/07 09:45:51;;;;;;;11.23;3.28;;;;;;;;;;5019999;28;20455;-86
2022/10/07 09:48:22;;;;;;;11.98;2.10;;;;;;;13.67;80.71;68287.31;5019320;28;20365;-86
2022/10/07 09:50:48;;;;;;;10.20;2.35;;;;;;;;;;5022165;28;20512;-86
2022/10/07 09:53:21;;;;;;;8.15;2.15;;;;;;;13.88;79.90;68315.41;5014976;28;20072;-86
2022/10/07 09:55:47;;;;;;;11.65;2.90;;;;;;;;;;5024373;28;20049;-88
2022/10/07 09:58:24;;;;;;;12.90;2.53;;;;;;;;;;5031091;28;20441;-86
2022/10/07 10:00:52;;;;;;;8.95;2.80;;;;;;;14.10;79.03;68335.09;5023374;28;20037;-87
2022/10/07 10:03:18;;;;;;;8.02;2.60;;;;;;;14.20;78.84;68345.91;5022615;28;20037;-86
2022/10/07 10:05:56;;;;;;;11.38;2.60;;;;;;;;;;5024381;28;20412;-86
2022/10/07 10:08:28;;;;;;;9.75;2.75;;;;;;;14.35;77.42;68362.41;5022219;28;20444;-86
2022/10/07 10:10:55;;;;;;;10.85;2.40;;;;;;;14.32;75.84;68359.00;5022443;28;20512;-87
2022/10/07 10:13:32;;;;;;;10.80;2.20;;;;;;;14.38;77.08;68371.19;5023096;28;20060;-86
2022/10/07 10:15:59;;;;;;;9.77;2.40;;;;;;;14.44;76.32;68378.59;5034060;28;20048;-86
2022/10/07 10:18:34;;;;;;;8.32;1.83;;;;;;;14.54;75.61;68381.38;5021195;28;21501;-86
2022/10/07 10:21:21;;;;;;;9.63;1.83;;;;;;;14.59;75.19;68389.19;5024467;28;20083;-88
2022/10/07 10:23:58;;;;;;;11.32;2.20;;;;;;;14.61;74.40;68392.03;5020794;28;20046;-86
2022/10/07 10:26:30;;;;;;;6.90;1.98;;;;;;;14.69;74.78;68400.00;5019447;28;20045;-87
2022/10/07 10:29:01;;;;;;;11.30;2.20;;;;;;;14.72;74.30;68403.97;5010631;28;20412;-86
2022/10/07 10:31:36;;;;;;;9.48;1.95;;;;;;;;;;5000348;28;20104;-85
2022/10/07 10:34:11;;;;;;;8.55;1.70;;;;;;;;;;5010393;28;20046;-87
2022/10/07 10:36:40;;;;;;;12.15;2.10;;;;;;;14.85;74.73;68415.53;5017190;28;20077;-86
2022/10/07 10:39:36;;;;;;;11.45;2.53;;;;;;;14.88;73.93;68422.22;5005793;28;20137;-85
2022/10/07 10:42:05;;;;;;;13.50;2.50;;;;;;;;;;4972977;28;20045;-86
2022/10/07 10:44:54;;;;;;;11.43;3.03;;;;;;;14.96;75.21;68430.16;5007508;28;20073;-87
2022/10/07 10:47:35;;;;;;;;;;;;;;;15.02;74.36;68437.00;5008362;28;20111;-85
2022/10/07 10:50:16;;;;;;;12.73;2.00;;;;;;;;;;5010495;28;19917;-86
2022/10/07 10:53:14;;;;;;;14.00;2.13;;;;;;;14.97;73.94;68437.25;4990378;28;20077;-86
2022/10/07 10:55:55;;;;;;;14.70;2.05;;;;;;;15.02;73.74;68437.00;4965413;28;20582;-86
2022/10/07 10:58:23;;;;;;;14.13;3.22;;;;;;;15.05;73.28;68440.44;4994522;28;20050;-86
2022/10/07 11:01:01;;;;;;;8.98;2.00;;;;;;;15.12;72.87;68446.28;5008962;28;20061;-86
2022/10/07 11:03:46;;;;;;;9.05;1.80;;;;;;;;;;5000713;28;20037;-86
2022/10/07 11:06:16;;;;;;;14.10;1.85;;;;;;;15.35;74.13;68479.38;5004473;28;20041;-86
2022/10/07 11:08:42;;;;;;;12.25;2.17;;;;;;;15.46;72.56;68486.00;5009973;28;20125;-87
2022/10/07 11:11:20;;;;;;;9.75;2.17;;;;;;;15.57;72.80;68499.09;5008027;28;20033;-89
2022/10/07 11:13:59;;;;;;;8.95;1.88;;;;;;;;;;5010219;28;20053;-86
2022/10/07 11:16:37;;;;;;;9.55;1.67;;;;;;;15.75;72.38;68518.47;5016064;28;20409;-86
2022/10/07 11:19:02;;;;;;;8.70;2.20;;;;;;;;;;5006450;28;20045;-86
2022/10/07 11:21:37;;;;;;;13.03;2.03;;;;;;;15.77;69.94;68526.69;5009920;28;20574;-87
2022/10/07 11:24:09;;;;;;;9.07;1.92;;;;;;;;;;5017236;28;20290;-87
2022/10/07 11:26:42;;;;;;;10.65;2.15;;;;;;;15.87;70.25;68532.16;4991152;28;20042;-87
2022/10/07 11:29:31;;;;;;;12.52;2.05;;;;;;;15.92;69.60;68537.84;5006764;28;20128;-86
2022/10/07 11:32:23;;;;;;;7.82;1.90;;;;;;;15.95;68.70;68541.25;5009056;28;20421;-87
2022/10/07 11:34:48;;;;;;;9.55;1.75;;;;;;;;;;4988892;28;20042;-89
2022/10/07 11:37:18;;;;;;;8.45;1.45;;;;;;;16.09;68.60;68556.09;5000828;28;20045;-86
2022/10/07 11:39:44;;;;;;;11.05;1.88;;;;;;;16.16;67.92;68564.06;5007781;28;20049;-86
2022/10/07 11:42:21;;;;;;;10.30;1.55;;;;;;;16.22;67.65;68571.47;5004916;28;20038;-86
2022/10/07 11:44:59;;;;;;;6.55;2.03;;;;;;;16.31;68.41;68581.16;5008594;28;20037;-88
2022/10/07 11:47:33;;;;;;;11.13;1.70;;;;;;;16.42;67.77;68590.44;5007129;28;20045;-86
2022/10/07 11:50:08;;;;;;;9.88;1.92;;;;;;;16.43;67.06;68592.16;5006713;28;20550;-86
2022/10/07 11:52:40;;;;;;;8.23;1.27;;;;;;;16.49;67.77;68598.44;5007412;28;20116;-87
2022/10/07 11:55:17;;;;;;;11.82;1.40;;;;;;;16.58;66.98;68611.38;5008551;28;20500;-86
2022/10/07 11:57:53;;;;;;;11.43;2.08;;;;;;;16.68;67.09;68619.50;5006433;28;20061;-86
2022/10/07 12:00:29;;;;;;;10.75;2.90;;;;;;;16.81;66.62;68637.06;5008633;28;20042;-86
2022/10/07 12:02:55;;;;;;;8.00;2.03;;;;;;;16.89;66.00;68645.63;5008765;28;20100;-86
2022/10/07 12:05:33;;;;;;;11.45;2.10;;;;;;;16.87;65.03;68643.31;5006758;28;20450;-86
2022/10/07 12:07:59;;;;;;;7.53;1.92;;;;;;;;;;5007973;28;20084;-86
2022/10/07 12:10:30;;;;;;;9.20;2.10;;;;;;;16.90;64.16;68644.63;5007385;28;20044;-86
2022/10/07 12:12:56;;;;;;;6.68;1.70;;;;;;;;;;5008739;28;20050;-86
2022/10/07 12:15:43;;;;;;;8.30;1.90;;;;;;;17.07;64.52;68665.56;5002950;28;20064;-87
2022/10/07 12:18:14;;;;;;;9.00;1.80;;;;;;;17.07;63.93;68666.13;5002098;28;20137;-87
2022/10/07 12:20:44;;;;;;;10.18;2.30;;;;;;;;;;5013066;28;20050;-87
2022/10/07 12:23:18;;;;;;;11.48;1.63;;;;;;;17.19;63.78;68676.56;5001176;28;20137;-86
2022/10/07 12:25:47;;;;;;;7.30;1.50;;;;;;;17.25;62.76;68682.84;5007429;28;20280;-86
2022/10/07 12:28:26;;;;;;;6.68;1.38;;;;;;;;;;5008500;28;20125;-86
2022/10/07 12:30:54;;;;;;;9.35;1.92;;;;;;;17.39;62.38;68701.50;5009559;28;20508;-86
2022/10/07 12:34:07;;;;;;;8.60;2.05;;;;;;;17.44;62.97;68712.59;5004271;28;20045;-87
2022/10/07 12:36:32;;;;;;;8.88;1.95;;;;;;;17.53;62.40;68714.22;5005255;28;20033;-88
2022/10/07 12:39:00;;;;;;;7.95;2.13;;;;;;;17.63;62.35;68728.31;5007730;28;20053;-88
2022/10/07 12:41:30;;;;;;;9.17;2.10;;;;;;;;;;5006581;28;20119;-88
2022/10/07 12:44:12;;;;;;;9.60;1.85;;;;;;;17.82;62.37;68741.38;4986927;28;20052;-87
2022/10/07 12:46:47;;;;;;;11.68;1.85;;;;;;;;;;5022168;28;20061;-87
2022/10/07 12:49:30;;;;;;;7.60;1.65;;;;;;;17.77;60.47;68738.91;5021252;28;20046;-86
2022/10/07 12:52:01;;;;;;;9.20;1.80;;;;;;;17.69;61.11;68734.59;5007325;28;20488;-87
2022/10/07 12:54:37;;;;;;;7.53;1.80;;;;;;;17.66;61.42;68731.72;5008515;28;20058;-88